sensor_id;sensor_type;location;lat;lon;timestamp;pressure;altitude;pressure_sealevel;temperature;humidity
75221;BME280;63802;53.232;6.570;2023-11-21T00:01:16;100850.84;;;8.24;100.00
75221;BME280;63802;53.232;6.570;2023-11-21T00:03:44;100845.88;;;8.26;100.00
75221;BME280;63802;53.232;6.570;2023-11-21T00:06:12;100887.34;;;8.51;100.00
75221;BME280;63802;53.232;6.570;2023-11-21T00:08:37;100868.13;;;8.44;100.00
75221;BME280;63802;53.232;6.570;2023-11-21T00:11:03;100883.16;;;8.53;100.00
75221;BME280;63802;53.232;6.570;2023-11-21T00:13:31;100841.56;;;8.25;100.00
75221;BME280;63802;53.232;6.570;2023-11-21T00:15:57;100915.38;;;8.67;100.00
75221;BME280;63802;53.232;6.570;2023-11-21T00:18:23;100851.41;;;8.30;100.00
75221;BME280;63802;53.232;6.570;2023-11-21T00:20:48;100890.88;;;8.51;100.00
75221;BME280;63802;53.232;6.570;2023-11-21T00:23:20;100893.69;;;8.55;100.00
75221;BME280;63802;53.232;6.570;2023-11-21T00:25:48;100873.56;;;8.44;100.00
75221;BME280;63802;53.232;6.570;2023-11-21T00:28:14;100846.44;;;8.32;100.00
75221;BME280;63802;53.232;6.570;2023-11-21T00:30:43;100860.41;;;8.46;100.00
75221;BME280;63802;53.232;6.570;2023-11-21T00:33:09;100852.75;;;8.36;100.00
75221;BME280;63802;53.232;6.570;2023-11-21T00:35:34;100853.19;;;8.38;100.00
75221;BME280;63802;53.232;6.570;2023-11-21T00:38:02;100884.03;;;8.57;100.00
75221;BME280;63802;53.232;6.570;2023-11-21T00:40:28;100875.31;;;8.52;100.00
75221;BME280;63802;53.232;6.570;2023-11-21T00:42:54;100848.91;;;8.37;100.00
75221;BME280;63802;53.232;6.570;2023-11-21T00:45:21;100879.19;;;8.51;100.00
75221;BME280;63802;53.232;6.570;2023-11-21T00:47:54;100898.63;;;8.65;100.00
75221;BME280;63802;53.232;6.570;2023-11-21T00:50:21;100863.88;;;8.31;100.00
75221;BME280;63802;53.232;6.570;2023-11-21T00:52:47;100902.50;;;8.52;100.00
75221;BME280;63802;53.232;6.570;2023-11-21T00:55:22;100904.28;;;8.44;100.00
75221;BME280;63802;53.232;6.570;2023-11-21T00:57:48;100928.44;;;8.61;100.00
75221;BME280;63802;53.232;6.570;2023-11-21T01:00:14;100934.78;;;8.65;100.00
75221;BME280;63802;53.232;6.570;2023-11-21T01:02:43;100933.53;;;8.63;100.00
75221;BME280;63802;53.232;6.570;2023-11-21T01:05:12;100914.00;;;8.45;100.00
75221;BME280;63802;53.232;6.570;2023-11-21T01:07:38;100887.19;;;8.32;100.00
75221;BME280;63802;53.232;6.570;2023-11-21T01:10:04;100941.69;;;8.63;100.00
75221;BME280;63802;53.232;6.570;2023-11-21T01:12:38;100938.53;;;8.61;100.00
75221;BME280;63802;53.232;6.570;2023-11-21T01:15:05;100947.22;;;8.66;100.00
75221;BME280;63802;53.232;6.570;2023-11-21T01:17:34;100902.84;;;8.35;100.00
75221;BME280;63802;53.232;6.570;2023-11-21T01:20:00;100962.78;;;8.66;100.00
75221;BME280;63802;53.232;6.570;2023-11-21T01:22:26;100958.03;;;8.63;100.00
75221;BME280;63802;53.232;6.570;2023-11-21T01:24:53;100921.50;;;8.36;100.00
75221;BME280;63802;53.232;6.570;2023-11-21T01:27:19;100923.44;;;8.36;100.00
75221;BME280;63802;53.232;6.570;2023-11-21T01:29:44;100956.81;;;8.48;100.00
75221;BME280;63802;53.232;6.570;2023-11-21T01:32:15;100956.91;;;8.52;100.00
75221;BME280;63802;53.232;6.570;2023-11-21T01:34:41;100943.13;;;8.45;100.00
75221;BME280;63802;53.232;6.570;2023-11-21T01:37:06;100977.50;;;8.65;100.00
75221;BME280;63802;53.232;6.570;2023-11-21T01:39:35;100964.16;;;8.60;100.00
75221;BME280;63802;53.232;6.570;2023-11-21T01:42:04;100987.69;;;8.68;100.00
75221;BME280;63802;53.232;6.570;2023-11-21T01:44:30;100990.75;;;8.66;100.00
75221;BME280;63802;53.232;6.570;2023-11-21T01:46:56;101006.28;;;8.78;100.00
75221;BME280;63802;53.232;6.570;2023-11-21T01:49:23;101001.84;;;8.73;100.00
75221;BME280;63802;53.232;6.570;2023-11-21T01:51:52;100963.06;;;8.49;100.00
75221;BME280;63802;53.232;6.570;2023-11-21T01:54:20;101010.91;;;8.77;100.00
75221;BME280;63802;53.232;6.570;2023-11-21T01:56:46;101009.00;;;8.78;100.00
75221;BME280;63802;53.232;6.570;2023-11-21T01:59:15;101015.56;;;8.77;100.00
75221;BME280;63802;53.232;6.570;2023-11-21T02:01:43;101012.84;;;8.77;100.00
75221;BME280;63802;53.232;6.570;2023-11-21T02:04:09;100994.50;;;8.62;100.00
75221;BME280;63802;53.232;6.570;2023-11-21T02:06:35;101019.75;;;8.74;100.00
75221;BME280;63802;53.232;6.570;2023-11-21T02:09:00;101014.19;;;8.71;100.00
75221;BME280;63802;53.232;6.570;2023-11-21T02:11:26;100984.09;;;8.52;100.00
75221;BME280;63802;53.232;6.570;2023-11-21T02:13:53;101000.41;;;8.52;100.00
75221;BME280;63802;53.232;6.570;2023-11-21T02:16:19;101039.34;;;8.80;100.00
75221;BME280;63802;53.232;6.570;2023-11-21T02:18:47;101053.41;;;8.82;100.00
75221;BME280;63802;53.232;6.570;2023-11-21T02:21:14;101030.44;;;8.67;100.00
75221;BME280;63802;53.232;6.570;2023-11-21T02:23:40;101058.63;;;8.87;100.00
75221;BME280;63802;53.232;6.570;2023-11-21T02:26:10;101054.22;;;8.83;100.00
75221;BME280;63802;53.232;6.570;2023-11-21T02:28:36;101059.44;;;8.75;100.00
75221;BME280;63802;53.232;6.570;2023-11-21T02:31:01;101049.56;;;8.71;100.00
75221;BME280;63802;53.232;6.570;2023-11-21T02:33:28;101070.41;;;8.79;100.00
75221;BME280;63802;53.232;6.570;2023-11-21T02:35:54;101075.19;;;8.82;100.00
75221;BME280;63802;53.232;6.570;2023-11-21T02:38:21;101081.41;;;8.83;100.00
75221;BME280;63802;53.232;6.570;2023-11-21T02:40:46;101075.97;;;8.83;100.00
75221;BME280;63802;53.232;6.570;2023-11-21T02:43:12;101064.09;;;8.75;100.00
75221;BME280;63802;53.232;6.570;2023-11-21T02:45:37;101014.50;;;8.54;100.00
75221;BME280;63802;53.232;6.570;2023-11-21T02:48:03;101074.94;;;8.87;100.00
75221;BME280;63802;53.232;6.570;2023-11-21T02:50:29;101057.72;;;8.71;100.00
75221;BME280;63802;53.232;6.570;2023-11-21T02:52:55;101074.50;;;8.85;100.00
75221;BME280;63802;53.232;6.570;2023-11-21T02:55:22;101030.81;;;8.54;100.00
75221;BME280;63802;53.232;6.570;2023-11-21T02:57:50;101066.34;;;8.73;100.00
75221;BME280;63802;53.232;6.570;2023-11-21T03:00:16;101053.91;;;8.60;100.00
75221;BME280;63802;53.232;6.570;2023-11-21T03:02:42;101060.00;;;8.69;100.00
75221;BME280;63802;53.232;6.570;2023-11-21T03:05:09;101063.16;;;8.71;100.00
75221;BME280;63802;53.232;6.570;2023-11-21T03:07:36;101089.34;;;8.88;100.00
75221;BME280;63802;53.232;6.570;2023-11-21T03:10:02;101103.28;;;8.86;100.00
75221;BME280;63802;53.232;6.570;2023-11-21T03:12:30;101068.41;;;8.64;100.00
75221;BME280;63802;53.232;6.570;2023-11-21T03:14:56;101104.75;;;8.84;100.00
75221;BME280;63802;53.232;6.570;2023-11-21T03:17:21;101103.94;;;8.83;100.00
75221;BME280;63802;53.232;6.570;2023-11-21T03:19:47;101111.78;;;8.85;100.00
75221;BME280;63802;53.232;6.570;2023-11-21T03:22:12;101109.41;;;8.83;100.00
75221;BME280;63802;53.232;6.570;2023-11-21T03:24:38;101112.13;;;8.83;100.00
75221;BME280;63802;53.232;6.570;2023-11-21T03:27:04;101110.78;;;8.77;100.00
75221;BME280;63802;53.232;6.570;2023-11-21T03:29:29;101115.63;;;8.84;100.00
75221;BME280;63802;53.232;6.570;2023-11-21T03:31:57;101092.13;;;8.63;100.00
75221;BME280;63802;53.232;6.570;2023-11-21T03:34:26;101103.75;;;8.76;100.00
75221;BME280;63802;53.232;6.570;2023-11-21T03:36:52;101107.38;;;8.80;100.00
75221;BME280;63802;53.232;6.570;2023-11-21T03:39:19;101076.81;;;8.59;100.00
75221;BME280;63802;53.232;6.570;2023-11-21T03:41:45;101084.50;;;8.57;100.00
75221;BME280;63802;53.232;6.570;2023-11-21T03:44:11;101094.81;;;8.63;100.00
75221;BME280;63802;53.232;6.570;2023-11-21T03:46:36;101129.16;;;8.80;100.00
75221;BME280;63802;53.232;6.570;2023-11-21T03:49:02;101078.16;;;8.53;100.00
75221;BME280;63802;53.232;6.570;2023-11-21T03:51:27;101115.66;;;8.71;100.00
75221;BME280;63802;53.232;6.570;2023-11-21T03:53:53;101106.47;;;8.64;100.00
75221;BME280;63802;53.232;6.570;2023-11-21T03:56:19;101134.16;;;8.78;100.00
75221;BME280;63802;53.232;6.570;2023-11-21T03:58:47;101131.97;;;8.71;100.00
75221;BME280;63802;53.232;6.570;2023-11-21T04:01:19;101130.63;;;8.65;100.00
75221;BME280;63802;53.232;6.570;2023-11-21T04:03:46;101146.59;;;8.79;100.00
75221;BME280;63802;53.232;6.570;2023-11-21T04:06:11;101129.72;;;8.61;100.00
75221;BME280;63802;53.232;6.570;2023-11-21T04:08:36;101151.25;;;8.78;100.00
75221;BME280;63802;53.232;6.570;2023-11-21T04:11:02;101159.75;;;8.77;100.00
75221;BME280;63802;53.232;6.570;2023-11-21T04:13:27;101160.44;;;8.74;100.00
75221;BME280;63802;53.232;6.570;2023-11-21T04:15:53;101174.97;;;8.78;100.00
75221;BME280;63802;53.232;6.570;2023-11-21T04:18:18;101161.38;;;8.66;100.00
75221;BME280;63802;53.232;6.570;2023-11-21T04:20:44;101160.88;;;8.64;100.00
75221;BME280;63802;53.232;6.570;2023-11-21T04:23:10;101175.19;;;8.73;100.00
75221;BME280;63802;53.232;6.570;2023-11-21T04:25:38;101190.72;;;8.72;100.00
75221;BME280;63802;53.232;6.570;2023-11-21T04:28:04;101188.78;;;8.61;100.00
75221;BME280;63802;53.232;6.570;2023-11-21T04:30:29;101198.53;;;8.74;100.00
75221;BME280;63802;53.232;6.570;2023-11-21T04:32:54;101212.47;;;8.72;100.00
75221;BME280;63802;53.232;6.570;2023-11-21T04:35:20;101223.38;;;8.72;100.00
75221;BME280;63802;53.232;6.570;2023-11-21T04:37:45;101194.78;;;8.54;100.00
75221;BME280;63802;53.232;6.570;2023-11-21T04:40:11;101204.66;;;8.59;100.00
75221;BME280;63802;53.232;6.570;2023-11-21T04:42:37;101226.19;;;8.76;100.00
75221;BME280;63802;53.232;6.570;2023-11-21T04:45:04;101233.44;;;8.72;100.00
75221;BME280;63802;53.232;6.570;2023-11-21T04:47:33;101241.25;;;8.73;100.00
75221;BME280;63802;53.232;6.570;2023-11-21T04:49:59;101242.84;;;8.74;100.00
75221;BME280;63802;53.232;6.570;2023-11-21T04:52:24;101246.03;;;8.76;100.00
75221;BME280;63802;53.232;6.570;2023-11-21T04:54:50;101253.59;;;8.71;100.00
75221;BME280;63802;53.232;6.570;2023-11-21T04:57:15;101261.31;;;8.69;100.00
75221;BME280;63802;53.232;6.570;2023-11-21T04:59:43;101267.00;;;8.76;100.00
75221;BME280;63802;53.232;6.570;2023-11-21T05:02:08;101267.78;;;8.76;100.00
75221;BME280;63802;53.232;6.570;2023-11-21T05:04:34;101250.91;;;8.59;100.00
75221;BME280;63802;53.232;6.570;2023-11-21T05:06:59;101281.63;;;8.71;100.00
75221;BME280;63802;53.232;6.570;2023-11-21T05:09:26;101295.34;;;8.75;100.00
75221;BME280;63802;53.232;6.570;2023-11-21T05:11:53;101289.31;;;8.69;100.00
75221;BME280;63802;53.232;6.570;2023-11-21T05:14:19;101297.63;;;8.73;100.00
75221;BME280;63802;53.232;6.570;2023-11-21T05:16:45;101286.28;;;8.59;100.00
75221;BME280;63802;53.232;6.570;2023-11-21T05:19:11;101314.16;;;8.68;100.00
75221;BME280;63802;53.232;6.570;2023-11-21T05:21:38;101321.31;;;8.72;100.00
75221;BME280;63802;53.232;6.570;2023-11-21T05:24:04;101318.13;;;8.70;100.00
75221;BME280;63802;53.232;6.570;2023-11-21T05:26:30;101285.69;;;8.53;100.00
75221;BME280;63802;53.232;6.570;2023-11-21T05:28:56;101299.72;;;8.55;100.00
75221;BME280;63802;53.232;6.570;2023-11-21T05:31:21;101336.84;;;8.72;100.00
75221;BME280;63802;53.232;6.570;2023-11-21T05:33:47;101313.00;;;8.57;100.00
75221;BME280;63802;53.232;6.570;2023-11-21T05:36:12;101314.34;;;8.51;100.00
75221;BME280;63802;53.232;6.570;2023-11-21T05:38:40;101352.81;;;8.73;100.00
75221;BME280;63802;53.232;6.570;2023-11-21T05:41:06;101320.44;;;8.48;100.00
75221;BME280;63802;53.232;6.570;2023-11-21T05:43:33;101331.56;;;8.55;100.00
75221;BME280;63802;53.232;6.570;2023-11-21T05:46:00;101343.50;;;8.62;100.00
75221;BME280;63802;53.232;6.570;2023-11-21T05:48:26;101313.16;;;8.40;100.00
75221;BME280;63802;53.232;6.570;2023-11-21T05:50:52;101312.16;;;8.32;100.00
75221;BME280;63802;53.232;6.570;2023-11-21T05:53:17;101371.75;;;8.70;100.00
75221;BME280;63802;53.232;6.570;2023-11-21T05:55:42;101373.31;;;8.71;100.00
75221;BME280;63802;53.232;6.570;2023-11-21T05:58:08;101387.41;;;8.73;100.00
75221;BME280;63802;53.232;6.570;2023-11-21T06:00:36;101362.97;;;8.52;100.00
75221;BME280;63802;53.232;6.570;2023-11-21T06:03:02;101403.75;;;8.73;100.00
75221;BME280;63802;53.232;6.570;2023-11-21T06:05:27;101351.72;;;8.42;100.00
75221;BME280;63802;53.232;6.570;2023-11-21T06:07:54;101387.59;;;8.56;100.00
75221;BME280;63802;53.232;6.570;2023-11-21T06:10:21;101406.88;;;8.63;100.00
75221;BME280;63802;53.232;6.570;2023-11-21T06:12:49;101399.56;;;8.55;100.00
75221;BME280;63802;53.232;6.570;2023-11-21T06:15:14;101370.50;;;8.35;100.00
75221;BME280;63802;53.232;6.570;2023-11-21T06:17:41;101425.78;;;8.59;100.00
75221;BME280;63802;53.232;6.570;2023-11-21T06:20:08;101424.50;;;8.57;100.00
75221;BME280;63802;53.232;6.570;2023-11-21T06:22:42;101409.75;;;8.46;100.00
75221;BME280;63802;53.232;6.570;2023-11-21T06:25:08;101425.41;;;8.49;100.00
75221;BME280;63802;53.232;6.570;2023-11-21T06:27:42;101436.16;;;8.45;100.00
75221;BME280;63802;53.232;6.570;2023-11-21T06:30:08;101425.91;;;8.42;100.00
75221;BME280;63802;53.232;6.570;2023-11-21T06:32:36;101414.00;;;8.35;100.00
75221;BME280;63802;53.232;6.570;2023-11-21T06:35:02;101457.09;;;8.45;100.00
75221;BME280;63802;53.232;6.570;2023-11-21T06:37:29;101441.22;;;8.35;100.00
75221;BME280;63802;53.232;6.570;2023-11-21T06:39:54;101445.97;;;8.38;100.00
75221;BME280;63802;53.232;6.570;2023-11-21T06:42:21;101445.03;;;8.34;100.00
75221;BME280;63802;53.232;6.570;2023-11-21T06:44:48;101457.03;;;8.33;100.00
75221;BME280;63802;53.232;6.570;2023-11-21T06:47:14;101468.84;;;8.37;100.00
75221;BME280;63802;53.232;6.570;2023-11-21T06:49:42;101471.22;;;8.38;100.00
75221;BME280;63802;53.232;6.570;2023-11-21T06:52:08;101474.19;;;8.25;100.00
75221;BME280;63802;53.232;6.570;2023-11-21T06:54:36;101477.41;;;8.27;100.00
75221;BME280;63802;53.232;6.570;2023-11-21T06:57:01;101480.44;;;8.25;100.00
75221;BME280;63802;53.232;6.570;2023-11-21T06:59:30;101477.09;;;8.20;100.00
75221;BME280;63802;53.232;6.570;2023-11-21T07:01:57;101487.50;;;8.18;100.00
75221;BME280;63802;53.232;6.570;2023-11-21T07:04:22;101471.50;;;7.95;100.00
75221;BME280;63802;53.232;6.570;2023-11-21T07:06:47;101507.66;;;8.17;100.00
75221;BME280;63802;53.232;6.570;2023-11-21T07:09:13;101496.97;;;8.11;100.00
75221;BME280;63802;53.232;6.570;2023-11-21T07:11:38;101488.09;;;8.02;100.00
75221;BME280;63802;53.232;6.570;2023-11-21T07:14:04;101519.69;;;8.16;100.00
75221;BME280;63802;53.232;6.570;2023-11-21T07:16:36;101517.41;;;8.18;100.00
75221;BME280;63802;53.232;6.570;2023-11-21T07:19:06;101513.16;;;8.08;100.00
75221;BME280;63802;53.232;6.570;2023-11-21T07:21:33;101511.44;;;8.03;100.00
75221;BME280;63802;53.232;6.570;2023-11-21T07:24:02;101535.03;;;8.11;100.00
75221;BME280;63802;53.232;6.570;2023-11-21T07:26:29;101517.06;;;7.90;100.00
75221;BME280;63802;53.232;6.570;2023-11-21T07:28:54;101524.75;;;7.88;100.00
75221;BME280;63802;53.232;6.570;2023-11-21T07:31:20;101524.63;;;7.84;100.00
75221;BME280;63802;53.232;6.570;2023-11-21T07:33:46;101547.13;;;7.93;100.00
75221;BME280;63802;53.232;6.570;2023-11-21T07:36:13;101555.75;;;7.95;100.00
75221;BME280;63802;53.232;6.570;2023-11-21T07:38:38;101530.72;;;7.81;100.00
75221;BME280;63802;53.232;6.570;2023-11-21T07:41:05;101565.50;;;7.96;100.00
75221;BME280;63802;53.232;6.570;2023-11-21T07:43:30;101570.25;;;7.99;100.00
75221;BME280;63802;53.232;6.570;2023-11-21T07:46:01;101549.09;;;7.84;100.00
75221;BME280;63802;53.232;6.570;2023-11-21T07:48:28;101594.06;;;8.02;100.00
75221;BME280;63802;53.232;6.570;2023-11-21T07:50:53;101592.47;;;8.01;100.00
75221;BME280;63802;53.232;6.570;2023-11-21T07:53:19;101561.41;;;7.82;100.00
75221;BME280;63802;53.232;6.570;2023-11-21T07:55:45;101589.00;;;7.92;100.00
75221;BME280;63802;53.232;6.570;2023-11-21T07:58:12;101602.22;;;8.02;100.00
75221;BME280;63802;53.232;6.570;2023-11-21T08:00:38;101598.75;;;7.93;100.00
75221;BME280;63802;53.232;6.570;2023-11-21T08:03:05;101617.25;;;8.00;100.00
75221;BME280;63802;53.232;6.570;2023-11-21T08:05:31;101621.44;;;7.97;100.00
75221;BME280;63802;53.232;6.570;2023-11-21T08:07:57;101630.34;;;8.06;100.00
75221;BME280;63802;53.232;6.570;2023-11-21T08:10:25;101632.59;;;8.04;100.00
75221;BME280;63802;53.232;6.570;2023-11-21T08:12:52;101643.47;;;8.04;100.00
75221;BME280;63802;53.232;6.570;2023-11-21T08:15:19;101649.06;;;8.08;100.00
75221;BME280;63802;53.232;6.570;2023-11-21T08:17:46;101657.53;;;8.06;100.00
75221;BME280;63802;53.232;6.570;2023-11-21T08:20:12;101632.31;;;7.97;100.00
75221;BME280;63802;53.232;6.570;2023-11-21T08:22:41;101662.31;;;8.09;100.00
75221;BME280;63802;53.232;6.570;2023-11-21T08:25:08;101662.19;;;8.06;100.00
75221;BME280;63802;53.232;6.570;2023-11-21T08:27:34;101664.09;;;8.05;100.00
75221;BME280;63802;53.232;6.570;2023-11-21T08:30:00;101663.13;;;8.01;100.00
75221;BME280;63802;53.232;6.570;2023-11-21T08:32:26;101664.28;;;8.00;100.00
75221;BME280;63802;53.232;6.570;2023-11-21T08:34:51;101659.00;;;7.95;100.00
75221;BME280;63802;53.232;6.570;2023-11-21T08:37:17;101678.03;;;7.95;100.00
75221;BME280;63802;53.232;6.570;2023-11-21T08:39:47;101683.00;;;7.93;100.00
75221;BME280;63802;53.232;6.570;2023-11-21T08:42:13;101649.97;;;7.74;100.00
75221;BME280;63802;53.232;6.570;2023-11-21T08:44:40;101645.50;;;7.61;100.00
75221;BME280;63802;53.232;6.570;2023-11-21T08:47:06;101693.22;;;7.88;100.00
75221;BME280;63802;53.232;6.570;2023-11-21T08:49:31;101697.22;;;7.90;100.00
75221;BME280;63802;53.232;6.570;2023-11-21T08:51:57;101696.59;;;7.93;100.00
75221;BME280;63802;53.232;6.570;2023-11-21T08:54:25;101704.28;;;7.91;100.00
75221;BME280;63802;53.232;6.570;2023-11-21T08:56:51;101693.72;;;7.81;100.00
75221;BME280;63802;53.232;6.570;2023-11-21T08:59:17;101721.22;;;7.88;100.00
75221;BME280;63802;53.232;6.570;2023-11-21T09:01:42;101723.59;;;7.90;100.00
75221;BME280;63802;53.232;6.570;2023-11-21T09:04:11;101722.03;;;7.89;100.00
75221;BME280;63802;53.232;6.570;2023-11-21T09:06:36;101720.75;;;7.86;100.00
75221;BME280;63802;53.232;6.570;2023-11-21T09:09:02;101712.91;;;7.76;100.00
75221;BME280;63802;53.232;6.570;2023-11-21T09:11:30;101735.13;;;7.87;100.00
75221;BME280;63802;53.232;6.570;2023-11-21T09:13:59;101726.66;;;7.88;100.00
75221;BME280;63802;53.232;6.570;2023-11-21T09:16:28;101734.00;;;7.88;100.00
75221;BME280;63802;53.232;6.570;2023-11-21T09:18:54;101745.66;;;7.97;100.00
75221;BME280;63802;53.232;6.570;2023-11-21T09:21:20;101750.13;;;7.93;100.00
75221;BME280;63802;53.232;6.570;2023-11-21T09:23:45;101751.41;;;7.95;100.00
75221;BME280;63802;53.232;6.570;2023-11-21T09:26:11;101726.00;;;7.83;100.00
75221;BME280;63802;53.232;6.570;2023-11-21T09:28:37;101751.38;;;8.04;100.00
75221;BME280;63802;53.232;6.570;2023-11-21T09:31:07;101757.78;;;7.99;100.00
75221;BME280;63802;53.232;6.570;2023-11-21T09:33:34;101772.03;;;7.88;100.00
75221;BME280;63802;53.232;6.570;2023-11-21T09:36:00;101767.88;;;7.90;100.00
75221;BME280;63802;53.232;6.570;2023-11-21T09:38:26;101779.22;;;7.92;100.00
75221;BME280;63802;53.232;6.570;2023-11-21T09:40:54;101782.78;;;7.84;100.00
75221;BME280;63802;53.232;6.570;2023-11-21T09:43:20;101773.03;;;7.75;100.00
75221;BME280;63802;53.232;6.570;2023-11-21T09:45:48;101791.06;;;7.88;100.00
75221;BME280;63802;53.232;6.570;2023-11-21T09:48:19;101796.81;;;7.78;100.00
75221;BME280;63802;53.232;6.570;2023-11-21T09:50:47;101776.03;;;7.56;100.00
75221;BME280;63802;53.232;6.570;2023-11-21T09:53:18;101808.16;;;7.71;100.00
75221;BME280;63802;53.232;6.570;2023-11-21T09:55:47;101772.34;;;7.52;100.00
75221;BME280;63802;53.232;6.570;2023-11-21T09:58:15;101829.91;;;7.88;100.00
75221;BME280;63802;53.232;6.570;2023-11-21T10:00:45;101812.34;;;7.77;100.00
75221;BME280;63802;53.232;6.570;2023-11-21T10:03:11;101847.31;;;7.87;100.00
75221;BME280;63802;53.232;6.570;2023-11-21T10:05:38;101850.03;;;7.87;100.00
75221;BME280;63802;53.232;6.570;2023-11-21T10:08:07;101868.25;;;7.78;100.00
75221;BME280;63802;53.232;6.570;2023-11-21T10:10:33;101855.63;;;7.65;100.00
75221;BME280;63802;53.232;6.570;2023-11-21T10:13:03;101846.78;;;7.51;100.00
75221;BME280;63802;53.232;6.570;2023-11-21T10:15:33;101883.47;;;7.79;100.00
75221;BME280;63802;53.232;6.570;2023-11-21T10:18:04;101871.44;;;7.80;100.00
75221;BME280;63802;53.232;6.570;2023-11-21T10:20:32;101896.56;;;7.86;100.00
75221;BME280;63802;53.232;6.570;2023-11-21T10:22:59;101897.03;;;7.79;100.00
75221;BME280;63802;53.232;6.570;2023-11-21T10:25:27;101882.78;;;7.65;100.00
75221;BME280;63802;53.232;6.570;2023-11-21T10:27:58;101911.09;;;7.81;100.00
75221;BME280;63802;53.232;6.570;2023-11-21T10:30:36;101884.88;;;7.85;100.00
75221;BME280;63802;53.232;6.570;2023-11-21T10:33:06;101918.34;;;8.03;100.00
75221;BME280;63802;53.232;6.570;2023-11-21T10:35:42;101923.78;;;8.11;100.00
75221;BME280;63802;53.232;6.570;2023-11-21T10:38:08;101933.22;;;8.05;100.00
75221;BME280;63802;53.232;6.570;2023-11-21T10:40:38;101919.78;;;8.00;100.00
75221;BME280;63802;53.232;6.570;2023-11-21T10:43:08;101946.66;;;8.10;100.00
75221;BME280;63802;53.232;6.570;2023-11-21T10:45:35;101937.34;;;7.94;100.00
75221;BME280;63802;53.232;6.570;2023-11-21T10:48:05;101927.69;;;7.71;100.00
75221;BME280;63802;53.232;6.570;2023-11-21T10:50:32;101953.63;;;7.77;100.00
75221;BME280;63802;53.232;6.570;2023-11-21T10:52:58;101976.31;;;7.81;100.00
75221;BME280;63802;53.232;6.570;2023-11-21T10:55:23;101978.91;;;7.86;100.00
75221;BME280;63802;53.232;6.570;2023-11-21T10:57:53;101982.38;;;7.78;100.00
75221;BME280;63802;53.232;6.570;2023-11-21T11:00:20;101957.56;;;7.63;100.00
75221;BME280;63802;53.232;6.570;2023-11-21T11:02:51;101969.94;;;7.77;100.00
75221;BME280;63802;53.232;6.570;2023-11-21T11:05:19;101978.75;;;7.91;100.00
75221;BME280;63802;53.232;6.570;2023-11-21T11:07:48;101985.56;;;7.80;100.00
75221;BME280;63802;53.232;6.570;2023-11-21T11:10:19;101995.00;;;7.74;100.00
75221;BME280;63802;53.232;6.570;2023-11-21T11:12:48;101998.53;;;7.75;100.00
75221;BME280;63802;53.232;6.570;2023-11-21T11:15:16;102007.31;;;7.80;100.00
75221;BME280;63802;53.232;6.570;2023-11-21T11:17:41;102008.47;;;7.88;100.00
75221;BME280;63802;53.232;6.570;2023-11-21T11:20:12;102016.00;;;7.99;100.00
75221;BME280;63802;53.232;6.570;2023-11-21T11:22:48;102011.72;;;7.98;100.00
75221;BME280;63802;53.232;6.570;2023-11-21T11:25:38;102004.34;;;7.99;100.00
75221;BME280;63802;53.232;6.570;2023-11-21T11:28:11;102007.84;;;7.91;100.00
75221;BME280;63802;53.232;6.570;2023-11-21T11:38:14;102034.41;;;8.02;100.00
75221;BME280;63802;53.232;6.570;2023-11-21T11:40:46;102044.94;;;7.95;100.00
75221;BME280;63802;53.232;6.570;2023-11-21T11:43:12;102049.91;;;7.93;100.00
75221;BME280;63802;53.232;6.570;2023-11-21T11:45:38;102047.84;;;7.99;100.00
75221;BME280;63802;53.232;6.570;2023-11-21T11:48:07;102059.34;;;8.04;100.00
75221;BME280;63802;53.232;6.570;2023-11-21T11:50:33;102056.97;;;8.11;100.00
75221;BME280;63802;53.232;6.570;2023-11-21T11:53:13;102062.34;;;8.42;100.00
75221;BME280;63802;53.232;6.570;2023-11-21T11:55:40;102068.59;;;8.43;100.00
75221;BME280;63802;53.232;6.570;2023-11-21T11:58:08;102073.75;;;8.53;100.00
75221;BME280;63802;53.232;6.570;2023-11-21T12:00:35;102073.94;;;8.65;100.00
75221;BME280;63802;53.232;6.570;2023-11-21T12:03:03;102080.19;;;8.74;100.00
75221;BME280;63802;53.232;6.570;2023-11-21T12:05:32;102065.44;;;8.58;100.00
75221;BME280;63802;53.232;6.570;2023-11-21T12:07:59;102104.44;;;8.45;100.00
75221;BME280;63802;53.232;6.570;2023-11-21T12:10:33;102093.81;;;8.18;100.00
75221;BME280;63802;53.232;6.570;2023-11-21T12:13:00;102110.97;;;8.27;100.00
75221;BME280;63802;53.232;6.570;2023-11-21T12:15:26;102113.81;;;8.22;100.00
75221;BME280;63802;53.232;6.570;2023-11-21T12:17:54;102111.06;;;8.22;100.00
75221;BME280;63802;53.232;6.570;2023-11-21T12:20:24;102112.25;;;8.29;100.00
75221;BME280;63802;53.232;6.570;2023-11-21T12:22:53;102117.22;;;8.36;100.00
75221;BME280;63802;53.232;6.570;2023-11-21T12:25:21;102114.38;;;8.41;100.00
75221;BME280;63802;53.232;6.570;2023-11-21T12:27:51;102112.31;;;8.46;100.00
75221;BME280;63802;53.232;6.570;2023-11-21T12:30:18;102111.53;;;8.63;100.00
75221;BME280;63802;53.232;6.570;2023-11-21T12:32:45;102119.41;;;8.82;100.00
75221;BME280;63802;53.232;6.570;2023-11-21T12:35:13;102122.25;;;8.59;100.00
75221;BME280;63802;53.232;6.570;2023-11-21T12:37:40;102119.19;;;8.44;100.00
75221;BME280;63802;53.232;6.570;2023-11-21T12:40:10;102124.97;;;8.51;100.00
75221;BME280;63802;53.232;6.570;2023-11-21T12:42:45;102136.63;;;8.43;100.00
75221;BME280;63802;53.232;6.570;2023-11-21T12:47:53;102143.88;;;8.56;100.00
75221;BME280;63802;53.232;6.570;2023-11-21T12:50:21;102121.91;;;8.44;100.00
75221;BME280;63802;53.232;6.570;2023-11-21T12:52:50;102118.53;;;8.38;100.00
75221;BME280;63802;53.232;6.570;2023-11-21T12:55:23;102119.47;;;8.34;100.00
75221;BME280;63802;53.232;6.570;2023-11-21T12:57:50;102138.66;;;8.29;100.00
75221;BME280;63802;53.232;6.570;2023-11-21T13:00:19;102140.91;;;8.35;100.00